Terminal Aerodrome Forecast
Issued by NWS

Home | Current Version | Previous Version | Text Only | Print | Product List | Glossary On
Versions: 1 2 3 4 5 6 7 8 9 10 11 12 13 14 15 16 17 18 19 20 21 22 23 24 25 26 27 28 29 30 31 32 33 34 35 36 37 38 39 40 41
000
FTUS43 KGRB 262300
TAFRHI
TAF
KRHI 262330Z 2700/2724 VRB03KT 4SM -SN BR SCT012 OVC035
      TEMPO 2700/2704 1 1/2SM -SHSN BKN015 BKN025
     FM270400 33004KT 5SM -SN BKN014 BKN025
     FM271000 32011G17KT 6SM -SN SCT015 BKN025
     FM271500 32012G20KT P6SM -SN SCT020 BKN030
     FM271900 32006KT P6SM SCT030 SCT040=

USA.gov is the U.S. government's official web portal to all federal, state and local government web resources and services.